Time;durP1;ratioP1;P1;durP2;ratioP2;P2;SDS_P1;SDS_P2;PMS_P1;PMS_P2;Temp;Humidity;BMP_temperature;BMP_pressure;BME280_temperature;BME280_humidity;BME280_pressure;Samples;Min_cycle;Max_cycle;Signal;HPM_P1;HPM_P2
2023/06/15 00:01:21;;;;;;;8.10;4.50;;;19.50;58.40;;;;;;5091173;28;20877;-79
2023/06/15 00:03:48;;;;;;;6.53;4.10;;;19.50;58.40;;;;;;5090730;28;20472;-79
2023/06/15 00:06:17;;;;;;;6.50;3.97;;;19.50;58.50;;;;;;5105731;28;20446;-79
2023/06/15 00:08:45;;;;;;;6.80;4.30;;;19.40;58.60;;;;;;5085534;28;20992;-81
2023/06/15 00:11:13;;;;;;;8.30;4.90;;;19.40;58.70;;;;;;5100295;28;20452;-81
2023/06/15 00:13:42;;;;;;;9.00;4.37;;;19.40;58.70;;;;;;5104104;28;20463;-79
2023/06/15 00:16:12;;;;;;;11.90;4.20;;;19.40;58.80;;;;;;5085740;28;20483;-81
2023/06/15 00:18:40;;;;;;;6.70;4.20;;;19.40;58.80;;;;;;5106396;28;20455;-81
2023/06/15 00:21:09;;;;;;;7.70;4.53;;;19.40;58.90;;;;;;5089641;28;20455;-79
2023/06/15 00:23:37;;;;;;;6.00;3.90;;;19.40;58.90;;;;;;5105054;28;20461;-81
2023/06/15 00:26:05;;;;;;;7.80;3.97;;;19.50;58.90;;;;;;5102344;28;20457;-80
2023/06/15 00:28:33;;;;;;;7.30;4.17;;;19.40;58.90;;;;;;5085102;28;20532;-79
2023/06/15 00:31:02;;;;;;;6.80;4.20;;;19.40;59.00;;;;;;5094747;28;20559;-79
2023/06/15 00:33:30;;;;;;;7.50;4.20;;;19.40;59.10;;;;;;5086481;28;20460;-81
2023/06/15 00:35:59;;;;;;;7.77;4.10;;;19.40;59.10;;;;;;5105812;28;20477;-79
2023/06/15 00:38:27;;;;;;;7.03;3.93;;;19.30;59.10;;;;;;5090979;28;20448;-80
2023/06/15 00:40:56;;;;;;;8.37;4.30;;;19.20;59.30;;;;;;5086734;28;21041;-79
2023/06/15 00:43:25;;;;;;;7.17;4.50;;;19.10;59.40;;;;;;5105148;28;20462;-79
2023/06/15 00:45:53;;;;;;;7.80;4.03;;;19.00;59.50;;;;;;5107606;28;20729;-81
2023/06/15 00:48:23;;;;;;;7.80;4.60;;;18.90;59.60;;;;;;5105764;28;20861;-80
2023/06/15 00:50:51;;;;;;;6.73;4.60;;;18.80;59.70;;;;;;5086216;28;20460;-80
2023/06/15 00:53:19;;;;;;;6.37;4.40;;;18.70;59.90;;;;;;5107570;28;20706;-79
2023/06/15 00:55:48;;;;;;;7.37;5.03;;;18.70;60.00;;;;;;5091014;28;21066;-81
2023/06/15 00:58:18;;;;;;;6.30;4.00;;;18.60;60.10;;;;;;5086103;28;20546;-80
2023/06/15 01:00:48;;;;;;;7.80;5.17;;;18.60;60.20;;;;;;5102089;28;20976;-82
2023/06/15 01:03:20;;;;;;;7.27;4.50;;;18.50;60.30;;;;;;5088869;28;20450;-78
2023/06/15 01:05:52;;;;;;;7.87;4.77;;;18.50;60.50;;;;;;5090005;28;21216;-80
2023/06/15 01:08:22;;;;;;;8.83;5.00;;;18.50;60.50;;;;;;5105640;28;20966;-80
2023/06/15 01:10:52;;;;;;;8.13;4.80;;;18.40;60.70;;;;;;5091246;28;20460;-79
2023/06/15 01:13:21;;;;;;;10.03;4.83;;;18.40;60.70;;;;;;5104245;28;20548;-78
2023/06/15 01:15:53;;;;;;;7.30;4.37;;;18.30;60.80;;;;;;5101500;28;20479;-79
2023/06/15 01:18:23;;;;;;;7.00;4.87;;;18.20;60.90;;;;;;5100253;28;20552;-79
2023/06/15 01:20:53;;;;;;;9.27;5.00;;;18.20;61.00;;;;;;5105755;28;20896;-82
2023/06/15 01:23:31;;;;;;;8.67;4.60;;;18.10;61.00;;;;;;5098806;28;20456;-78
2023/06/15 01:26:06;;;;;;;8.77;4.80;;;18.10;61.20;;;;;;5086671;28;20457;-79
2023/06/15 01:28:40;;;;;;;6.70;4.47;;;18.00;61.30;;;;;;5102288;28;20489;-81
2023/06/15 01:31:09;;;;;;;7.77;4.77;;;18.00;61.40;;;;;;5083124;28;20462;-78
2023/06/15 01:33:45;;;;;;;6.70;4.63;;;18.00;61.50;;;;;;5099668;28;21192;-80
2023/06/15 01:36:13;;;;;;;7.33;4.80;;;18.00;61.50;;;;;;5090733;28;20474;-79
2023/06/15 01:38:46;;;;;;;9.33;5.20;;;18.00;61.50;;;;;;5085550;28;20471;-81
2023/06/15 01:41:18;;;;;;;7.70;4.50;;;18.00;61.50;;;;;;5083496;28;20477;-79
2023/06/15 01:43:46;;;;;;;10.13;4.30;;;18.00;61.60;;;;;;5091608;28;20472;-79
2023/06/15 01:46:16;;;;;;;6.20;4.17;;;18.00;61.60;;;;;;5085615;28;20452;-79
2023/06/15 01:48:44;;;;;;;7.97;4.90;;;18.00;61.60;;;;;;5102068;28;20547;-82
2023/06/15 01:51:13;;;;;;;9.10;4.40;;;17.90;61.60;;;;;;5087250;28;20466;-80
2023/06/15 01:53:43;;;;;;;7.90;5.00;;;17.80;61.70;;;;;;5102946;28;20540;-82
2023/06/15 01:56:11;;;;;;;8.70;5.47;;;17.80;61.90;;;;;;5105358;28;21036;-80
2023/06/15 01:58:40;;;;;;;7.37;4.50;;;17.80;62.10;;;;;;5093409;28;20459;-80
2023/06/15 02:01:08;;;;;;;6.90;5.00;;;17.70;62.10;;;;;;5095040;28;20988;-79
2023/06/15 02:03:36;;;;;;;8.13;4.47;;;17.70;62.10;;;;;;5109788;28;20547;-78
2023/06/15 02:06:10;;;;;;;6.23;3.93;;;17.60;62.10;;;;;;5093388;28;20457;-81
2023/06/15 02:08:38;;;;;;;6.90;5.00;;;17.50;62.20;;;;;;5095083;28;20455;-79
2023/06/15 02:11:06;;;;;;;7.37;4.70;;;17.50;62.30;;;;;;5105483;28;20540;-80
2023/06/15 02:13:34;;;;;;;6.97;4.73;;;17.40;62.50;;;;;;5094079;28;20913;-79
2023/06/15 02:16:07;;;;;;;7.03;5.07;;;17.40;62.60;;;;;;5107667;28;20474;-79
2023/06/15 02:18:37;;;;;;;8.40;5.70;;;17.40;62.70;;;;;;5090348;28;21003;-81
2023/06/15 02:21:05;;;;;;;7.50;4.40;;;17.30;62.80;;;;;;5087527;28;21075;-80
2023/06/15 02:23:34;;;;;;;8.57;5.83;;;17.30;62.90;;;;;;5089953;28;20815;-85
2023/06/15 02:26:02;;;;;;;7.83;5.23;;;17.30;63.00;;;;;;5094754;28;20454;-81
2023/06/15 02:28:31;;;;;;;6.80;4.70;;;17.30;63.00;;;;;;5088429;28;20944;-80
2023/06/15 02:30:59;;;;;;;8.87;4.93;;;17.30;62.90;;;;;;5084849;28;21017;-81
2023/06/15 02:33:29;;;;;;;8.53;5.33;;;17.30;63.00;;;;;;5085478;28;20496;-81
2023/06/15 02:35:57;;;;;;;6.87;4.80;;;17.30;63.10;;;;;;5103791;28;21033;-81
2023/06/15 02:38:26;;;;;;;8.00;4.90;;;17.30;63.10;;;;;;5090161;28;20536;-81
2023/06/15 02:40:55;;;;;;;9.23;5.00;;;17.20;63.10;;;;;;5091360;28;20883;-80
2023/06/15 02:43:23;;;;;;;6.87;4.60;;;17.20;63.10;;;;;;5089523;28;20929;-79
2023/06/15 02:45:51;;;;;;;7.33;4.97;;;17.20;63.10;;;;;;5090153;28;20454;-81
2023/06/15 02:48:20;;;;;;;8.10;5.10;;;17.20;63.20;;;;;;5093370;28;20559;-81
2023/06/15 02:50:49;;;;;;;7.47;5.10;;;17.20;63.30;;;;;;5091915;28;20451;-81
2023/06/15 02:53:21;;;;;;;12.63;5.00;;;17.20;63.40;;;;;;5090791;28;20587;-80
2023/06/15 02:55:57;;;;;;;8.40;4.80;;;17.20;63.30;;;;;;5081534;28;20468;-80
2023/06/15 02:58:26;;;;;;;7.53;4.93;;;17.20;63.30;;;;;;5085030;28;20594;-81
2023/06/15 03:01:17;;;;;;;7.93;5.07;;;17.20;63.30;;;;;;5094907;28;20483;-80
2023/06/15 03:03:56;;;;;;;12.07;5.00;;;17.20;63.30;;;;;;5110699;28;20463;-80
2023/06/15 03:06:27;;;;;;;8.00;5.00;;;17.20;63.40;;;;;;5108945;28;20442;-79
2023/06/15 03:08:58;;;;;;;7.07;4.77;;;17.20;63.40;;;;;;5087677;28;20457;-79
2023/06/15 03:11:30;;;;;;;7.20;4.77;;;17.10;63.40;;;;;;5102321;28;20460;-79
2023/06/15 03:13:59;;;;;;;9.57;4.93;;;17.10;63.40;;;;;;5092838;28;20497;-79
2023/06/15 03:16:39;;;;;;;7.80;4.93;;;17.10;63.40;;;;;;5080778;28;20931;-79
2023/06/15 03:19:08;;;;;;;8.83;5.57;;;17.10;63.40;;;;;;5102611;28;20468;-79
2023/06/15 03:21:37;;;;;;;11.00;5.43;;;17.10;63.40;;;;;;5092888;28;20804;-79
2023/06/15 03:24:08;;;;;;;9.40;5.27;;;17.00;63.40;;;;;;5082274;28;20459;-81
2023/06/15 03:26:37;;;;;;;8.50;5.50;;;17.00;63.40;;;;;;5089030;28;20997;-80
2023/06/15 03:29:05;;;;;;;9.63;5.50;;;16.90;63.50;;;;;;5088366;28;20563;-80
2023/06/15 03:31:40;;;;;;;7.67;4.77;;;16.90;63.60;;;;;;5092946;28;20484;-81
2023/06/15 03:34:09;;;;;;;8.30;5.10;;;16.90;63.60;;;;;;5102956;28;20551;-81
2023/06/15 03:36:39;;;;;;;7.90;5.43;;;16.80;63.50;;;;;;5108424;28;20563;-82
2023/06/15 03:39:07;;;;;;;8.67;4.80;;;16.80;63.60;;;;;;5086639;28;20584;-79
2023/06/15 03:41:37;;;;;;;8.50;5.00;;;16.70;63.60;;;;;;5110344;28;20864;-81
2023/06/15 03:44:06;;;;;;;8.47;5.53;;;16.70;63.70;;;;;;5093480;28;20456;-81
2023/06/15 03:46:34;;;;;;;8.30;5.60;;;16.60;63.70;;;;;;5089285;28;20460;-79
2023/06/15 03:49:02;;;;;;;7.00;4.90;;;16.60;63.80;;;;;;5090769;28;20986;-82
2023/06/15 03:51:30;;;;;;;11.80;5.20;;;16.50;63.80;;;;;;5089173;28;20820;-79
2023/06/15 03:54:00;;;;;;;9.87;5.47;;;16.50;63.90;;;;;;5102796;28;20456;-80
2023/06/15 03:56:28;;;;;;;8.60;5.23;;;16.40;64.20;;;;;;5090141;28;20474;-80
2023/06/15 03:58:56;;;;;;;6.87;4.83;;;16.50;64.20;;;;;;5104723;28;20451;-82
2023/06/15 04:01:25;;;;;;;10.93;5.50;;;16.50;64.20;;;;;;5089991;28;20479;-81
2023/06/15 04:03:54;;;;;;;7.57;5.07;;;16.50;64.30;;;;;;5085971;28;20453;-79
2023/06/15 04:06:23;;;;;;;7.20;4.70;;;16.60;64.30;;;;;;5089670;28;21007;-80
2023/06/15 04:08:51;;;;;;;11.70;4.80;;;16.60;64.30;;;;;;5090213;28;20866;-82
2023/06/15 04:11:25;;;;;;;7.60;5.03;;;16.60;64.30;;;;;;5089054;28;20461;-81
2023/06/15 04:13:53;;;;;;;8.73;4.93;;;16.70;64.30;;;;;;5073544;28;20543;-82
2023/06/15 04:16:25;;;;;;;9.83;5.60;;;16.70;64.30;;;;;;5088576;28;20468;-79
2023/06/15 04:18:53;;;;;;;7.30;4.70;;;16.70;64.40;;;;;;5090793;28;20510;-80
2023/06/15 04:21:21;;;;;;;11.93;5.27;;;16.70;64.40;;;;;;5090815;28;20493;-80
2023/06/15 04:23:49;;;;;;;8.27;5.47;;;16.80;64.50;;;;;;5090839;28;20482;-79
2023/06/15 04:26:19;;;;;;;10.70;4.90;;;16.90;64.50;;;;;;5086415;28;20512;-79
2023/06/15 04:28:49;;;;;;;9.93;5.50;;;17.00;64.60;;;;;;5086416;28;20452;-79
2023/06/15 04:31:21;;;;;;;10.47;5.43;;;17.10;64.60;;;;;;5085108;28;20479;-80
2023/06/15 04:33:58;;;;;;;7.80;5.33;;;17.20;64.50;;;;;;5086010;28;20461;-83
2023/06/15 04:36:31;;;;;;;9.17;5.60;;;17.40;64.50;;;;;;5090488;28;20902;-80
2023/06/15 04:39:00;;;;;;;8.30;4.70;;;17.60;64.50;;;;;;5095749;28;20457;-76
2023/06/15 04:41:29;;;;;;;8.77;5.63;;;17.80;64.40;;;;;;5092532;28;20550;-78
2023/06/15 04:44:04;;;;;;;9.70;5.20;;;18.00;64.20;;;;;;5090696;28;20835;-81
2023/06/15 04:46:36;;;;;;;8.90;5.53;;;18.20;64.20;;;;;;5088358;28;20454;-79
2023/06/15 04:49:04;;;;;;;9.10;4.83;;;18.30;64.20;;;;;;5101949;28;20459;-81
2023/06/15 04:51:31;;;;;;;10.20;4.87;;;18.50;64.10;;;;;;5086798;28;21206;-79
2023/06/15 04:54:00;;;;;;;9.70;5.07;;;18.60;64.00;;;;;;5091716;28;20535;-81
2023/06/15 04:56:28;;;;;;;8.70;4.83;;;18.80;64.00;;;;;;5105785;28;20455;-79
2023/06/15 04:58:56;;;;;;;7.90;5.20;;;18.90;64.00;;;;;;5097592;28;20487;-81
2023/06/15 05:01:26;;;;;;;9.90;4.90;;;19.10;63.80;;;;;;5085047;28;21061;-81
2023/06/15 05:03:54;;;;;;;9.90;5.43;;;19.20;63.70;;;;;;5098493;28;20520;-80
2023/06/15 05:06:23;;;;;;;9.50;5.67;;;19.40;63.50;;;;;;5085253;28;20471;-81
2023/06/15 05:08:52;;;;;;;8.57;5.40;;;19.50;63.40;;;;;;5086511;28;20447;-81
2023/06/15 05:11:23;;;;;;;10.40;5.60;;;19.50;63.40;;;;;;5091828;28;20961;-79
2023/06/15 05:13:51;;;;;;;8.83;5.50;;;19.60;63.50;;;;;;5092921;28;20458;-80
2023/06/15 05:16:20;;;;;;;12.83;5.63;;;19.70;63.70;;;;;;5083022;28;20466;-80
2023/06/15 05:18:50;;;;;;;11.03;5.90;;;19.90;64.00;;;;;;5080882;28;20567;-81
2023/06/15 05:21:18;;;;;;;10.00;5.33;;;20.00;64.20;;;;;;5088618;28;20500;-79
2023/06/15 05:23:48;;;;;;;8.60;5.80;;;20.20;64.10;;;;;;5090285;28;20451;-81
2023/06/15 05:26:16;;;;;;;9.97;5.13;;;20.40;64.00;;;;;;5085220;28;20447;-82
2023/06/15 05:28:49;;;;;;;9.53;5.23;;;20.60;63.90;;;;;;5083921;28;21143;-79
2023/06/15 05:31:18;;;;;;;7.77;5.43;;;20.80;63.90;;;;;;5081560;28;20456;-80
2023/06/15 05:33:46;;;;;;;14.53;5.37;;;20.90;63.80;;;;;;5086572;28;20465;-80
2023/06/15 05:36:16;;;;;;;10.17;4.83;;;21.10;63.90;;;;;;5087014;28;20479;-81
2023/06/15 05:39:06;;;;;;;8.60;4.80;;;21.40;64.10;;;;;;5092231;28;20565;-80
2023/06/15 05:41:35;;;;;;;7.57;4.53;;;22.00;63.70;;;;;;5091709;28;20456;-81
2023/06/15 05:44:03;;;;;;;7.33;4.83;;;22.90;62.00;;;;;;5091972;28;20456;-80
2023/06/15 05:46:32;;;;;;;7.13;4.10;;;23.80;60.30;;;;;;5091966;28;20551;-82
2023/06/15 05:49:00;;;;;;;7.63;4.60;;;24.70;58.80;;;;;;5088132;28;20527;-82
2023/06/15 05:51:30;;;;;;;7.40;4.30;;;25.40;57.60;;;;;;5098484;28;20460;-80
2023/06/15 05:53:58;;;;;;;8.50;4.83;;;26.10;56.50;;;;;;5108413;28;20473;-82
2023/06/15 05:56:26;;;;;;;7.90;4.73;;;26.60;55.70;;;;;;5110420;28;20448;-81
2023/06/15 05:58:54;;;;;;;9.80;4.40;;;27.10;54.90;;;;;;5093157;28;20842;-82
2023/06/15 06:01:22;;;;;;;8.70;4.50;;;27.50;54.10;;;;;;5092016;28;20495;-79
2023/06/15 06:04:01;;;;;;;9.50;4.83;;;27.80;53.00;;;;;;5093086;28;20464;-81
2023/06/15 06:06:30;;;;;;;8.10;4.50;;;28.00;52.20;;;;;;5098914;28;21024;-81
2023/06/15 06:08:58;;;;;;;9.50;4.80;;;28.10;51.90;;;;;;5091914;28;20463;-81
2023/06/15 06:11:27;;;;;;;11.30;4.90;;;28.00;51.70;;;;;;5101184;28;20506;-80
2023/06/15 06:14:00;;;;;;;12.87;5.23;;;27.70;51.80;;;;;;5092485;28;20929;-81
2023/06/15 06:16:28;;;;;;;9.50;4.10;;;27.30;52.20;;;;;;5090933;28;20460;-81
2023/06/15 06:18:56;;;;;;;7.73;4.70;;;27.10;52.30;;;;;;5105486;28;20829;-82
2023/06/15 06:21:24;;;;;;;11.13;4.93;;;26.90;52.40;;;;;;5078808;28;20448;-82
2023/06/15 06:23:54;;;;;;;8.07;5.20;;;26.60;52.40;;;;;;5086934;28;20501;-80
2023/06/15 06:26:25;;;;;;;5.80;3.70;;;26.20;52.80;;;;;;5086248;28;20535;-80
2023/06/15 06:28:53;;;;;;;7.33;4.60;;;25.90;53.20;;;;;;5106863;28;20482;-80
2023/06/15 06:31:21;;;;;;;6.87;4.83;;;25.40;53.20;;;;;;5080969;28;20469;-81
2023/06/15 06:33:49;;;;;;;9.33;4.50;;;24.90;53.60;;;;;;5098636;28;20471;-81
2023/06/15 06:36:17;;;;;;;8.53;4.50;;;24.50;53.90;;;;;;5095082;28;20443;-82
2023/06/15 06:38:45;;;;;;;9.30;5.20;;;23.90;54.40;;;;;;5089034;28;21275;-80
2023/06/15 06:41:21;;;;;;;12.07;5.60;;;23.40;55.00;;;;;;5099838;28;20562;-82
2023/06/15 06:43:49;;;;;;;8.67;5.10;;;23.00;55.50;;;;;;5097630;28;20461;-81
2023/06/15 06:46:38;;;;;;;7.80;5.20;;;22.60;56.00;;;;;;5106112;28;20462;-80
2023/06/15 06:49:06;;;;;;;8.20;5.13;;;22.10;56.80;;;;;;5078916;28;20456;-80
2023/06/15 06:51:34;;;;;;;11.73;5.57;;;21.80;57.30;;;;;;5109022;28;20454;-80
2023/06/15 06:54:02;;;;;;;9.23;5.27;;;21.60;57.70;;;;;;5087101;28;20449;-81
2023/06/15 06:56:31;;;;;;;11.10;5.03;;;21.40;58.20;;;;;;5102139;28;20452;-79
2023/06/15 06:58:59;;;;;;;7.93;5.27;;;21.30;58.60;;;;;;5109719;28;20477;-80
2023/06/15 07:01:27;;;;;;;7.97;4.73;;;21.20;58.90;;;;;;5090706;28;20462;-81
2023/06/15 07:03:55;;;;;;;9.70;5.47;;;21.20;59.10;;;;;;5100596;28;20445;-80
2023/06/15 07:06:25;;;;;;;7.83;4.63;;;21.20;59.40;;;;;;5105403;28;20474;-81
2023/06/15 07:08:52;;;;;;;8.93;5.50;;;21.20;59.60;;;;;;5104698;28;20456;-81
2023/06/15 07:11:21;;;;;;;9.10;6.07;;;21.20;59.80;;;;;;5105582;28;20448;-81
2023/06/15 07:13:50;;;;;;;12.23;5.83;;;21.20;60.00;;;;;;5105896;28;20968;-82
2023/06/15 07:16:18;;;;;;;14.63;5.80;;;21.30;60.10;;;;;;5100434;28;20458;-80
2023/06/15 07:18:46;;;;;;;9.30;5.23;;;21.20;60.20;;;;;;5080751;28;20476;-81
2023/06/15 07:21:14;;;;;;;9.13;5.30;;;21.20;60.20;;;;;;5089194;28;20453;-80
2023/06/15 07:23:42;;;;;;;9.00;4.47;;;21.20;60.30;;;;;;5100787;28;20459;-79
2023/06/15 07:26:20;;;;;;;8.70;5.17;;;21.30;60.40;;;;;;5103697;28;20858;-80
2023/06/15 07:28:49;;;;;;;7.50;5.00;;;21.30;60.50;;;;;;5083535;28;20647;-81
2023/06/15 07:31:17;;;;;;;8.23;5.07;;;21.30;60.60;;;;;;5097936;28;21012;-82
2023/06/15 07:33:46;;;;;;;9.97;5.80;;;21.40;60.50;;;;;;5090268;28;20962;-80
2023/06/15 07:36:14;;;;;;;9.70;5.77;;;21.50;60.30;;;;;;5090176;28;20444;-81
2023/06/15 07:38:42;;;;;;;9.47;5.20;;;21.50;60.10;;;;;;5088487;28;20551;-80
2023/06/15 07:41:10;;;;;;;9.40;5.50;;;21.40;59.90;;;;;;5109674;28;20475;-82
2023/06/15 07:43:38;;;;;;;8.30;5.67;;;21.50;59.80;;;;;;5102591;28;20494;-81
2023/06/15 07:46:07;;;;;;;8.30;5.17;;;21.40;59.80;;;;;;5084408;28;20494;-80
2023/06/15 07:48:35;;;;;;;9.70;5.50;;;21.50;59.20;;;;;;5102896;28;20535;-80
2023/06/15 07:51:03;;;;;;;8.90;5.60;;;21.50;59.00;;;;;;5107845;28;20483;-80
2023/06/15 07:53:31;;;;;;;9.80;4.97;;;21.70;58.80;;;;;;5093898;28;20467;-80
2023/06/15 07:55:59;;;;;;;12.33;5.80;;;21.80;58.70;;;;;;5103080;28;20959;-81
2023/06/15 07:58:27;;;;;;;7.80;5.23;;;21.80;58.50;;;;;;5104607;28;20472;-81
2023/06/15 08:00:55;;;;;;;13.33;5.10;;;21.80;58.10;;;;;;5107196;28;20895;-80
2023/06/15 08:03:33;;;;;;;8.17;5.30;;;21.80;58.00;;;;;;5107408;28;20454;-81
2023/06/15 08:06:01;;;;;;;12.27;5.50;;;21.80;57.80;;;;;;5104198;28;20464;-81
2023/06/15 08:08:29;;;;;;;8.43;5.17;;;21.80;57.80;;;;;;5105550;28;20484;-80
2023/06/15 08:10:57;;;;;;;10.30;5.40;;;21.90;57.80;;;;;;5092189;28;20462;-80
2023/06/15 08:13:26;;;;;;;10.80;5.83;;;21.90;57.70;;;;;;5087351;28;20729;-80
2023/06/15 08:15:54;;;;;;;8.97;5.93;;;22.00;57.70;;;;;;5090859;28;20522;-82
2023/06/15 08:18:22;;;;;;;8.40;5.00;;;22.00;57.50;;;;;;5093342;28;20452;-81
2023/06/15 08:20:51;;;;;;;13.60;6.67;;;22.10;57.20;;;;;;5110980;28;20439;-82
2023/06/15 08:23:20;;;;;;;8.80;5.50;;;22.20;56.90;;;;;;5108196;28;20491;-82
2023/06/15 08:25:52;;;;;;;11.30;5.57;;;22.20;56.70;;;;;;5093990;28;20458;-81
2023/06/15 08:28:20;;;;;;;10.80;5.80;;;22.20;56.60;;;;;;5101804;28;20451;-80
2023/06/15 08:30:48;;;;;;;10.60;5.20;;;22.10;56.60;;;;;;5103316;28;20475;-81
2023/06/15 08:33:24;;;;;;;8.43;5.20;;;22.20;56.50;;;;;;5106110;28;20484;-82
2023/06/15 08:35:54;;;;;;;9.97;6.17;;;22.30;56.40;;;;;;5092715;28;20458;-79
2023/06/15 08:38:22;;;;;;;11.30;6.10;;;22.30;56.30;;;;;;5085422;28;20444;-80
2023/06/15 08:40:49;;;;;;;10.67;6.00;;;22.30;56.20;;;;;;5097040;28;20922;-81
2023/06/15 08:43:19;;;;;;;10.03;6.50;;;22.40;56.10;;;;;;5107759;28;20446;-80
2023/06/15 08:45:53;;;;;;;8.60;6.03;;;22.50;56.00;;;;;;5098643;28;20451;-79
2023/06/15 08:48:23;;;;;;;9.70;6.80;;;22.50;55.30;;;;;;5105233;28;20440;-80
2023/06/15 08:50:53;;;;;;;8.27;6.10;;;22.50;55.00;;;;;;5102952;28;20854;-81
2023/06/15 08:53:22;;;;;;;10.87;7.00;;;22.50;54.80;;;;;;5109342;28;20448;-81
2023/06/15 08:55:51;;;;;;;8.77;6.50;;;22.50;54.80;;;;;;5102400;28;20454;-82
2023/06/15 08:58:19;;;;;;;8.43;6.10;;;22.50;54.40;;;;;;5093351;28;20464;-81
2023/06/15 09:00:47;;;;;;;9.80;6.80;;;22.60;53.90;;;;;;5099915;28;20511;-80
2023/06/15 09:03:18;;;;;;;9.30;7.00;;;22.50;54.00;;;;;;5111613;28;20442;-81
2023/06/15 09:05:46;;;;;;;9.50;6.43;;;22.60;53.70;;;;;;5087534;28;20491;-81
2023/06/15 09:08:15;;;;;;;13.03;7.00;;;22.60;53.30;;;;;;5091891;28;20457;-82
2023/06/15 09:10:43;;;;;;;9.30;6.90;;;22.70;53.10;;;;;;5106974;28;20436;-80
2023/06/15 09:13:16;;;;;;;11.50;7.17;;;22.70;53.10;;;;;;5091797;28;20448;-79
2023/06/15 09:15:50;;;;;;;9.33;7.23;;;22.70;52.80;;;;;;5109667;28;20886;-81
2023/06/15 09:18:18;;;;;;;9.43;6.63;;;22.70;52.70;;;;;;5081931;28;20491;-82
2023/06/15 09:20:49;;;;;;;10.83;6.57;;;22.80;52.40;;;;;;5089102;28;20469;-81
2023/06/15 09:23:19;;;;;;;8.90;6.63;;;22.80;52.30;;;;;;5108314;28;20537;-81
2023/06/15 09:25:51;;;;;;;10.40;6.50;;;22.90;52.00;;;;;;5091435;28;21018;-80
2023/06/15 09:28:22;;;;;;;9.77;5.77;;;22.90;52.00;;;;;;5093833;28;20459;-79
2023/06/15 09:30:55;;;;;;;9.40;6.30;;;22.90;51.80;;;;;;5104111;28;20459;-82
2023/06/15 09:33:25;;;;;;;11.27;6.43;;;23.00;51.90;;;;;;5085043;28;20452;-81
2023/06/15 09:35:58;;;;;;;9.20;6.20;;;23.00;51.90;;;;;;5103538;28;20448;-82
2023/06/15 09:38:29;;;;;;;10.60;6.17;;;23.00;51.80;;;;;;5087205;28;20526;-80
2023/06/15 09:40:57;;;;;;;11.40;5.53;;;23.10;51.90;;;;;;5105318;28;20472;-81
2023/06/15 09:43:33;;;;;;;9.40;5.90;;;23.10;51.70;;;;;;5106092;28;20513;-81
2023/06/15 09:46:02;;;;;;;8.40;5.80;;;23.10;51.40;;;;;;5092584;28;20456;-84
2023/06/15 09:48:31;;;;;;;9.57;5.80;;;23.20;51.30;;;;;;5089526;28;20688;-80
2023/06/15 09:51:02;;;;;;;9.80;6.33;;;23.20;51.30;;;;;;5112731;28;20456;-83
2023/06/15 09:53:32;;;;;;;9.97;5.70;;;23.20;51.10;;;;;;5106098;28;21170;-83
2023/06/15 09:56:02;;;;;;;7.27;4.83;;;23.30;51.20;;;;;;5105723;28;20448;-82
2023/06/15 09:58:49;;;;;;;11.63;5.40;;;23.30;50.90;;;;;;5084723;28;20460;-81
2023/06/15 10:01:19;;;;;;;8.33;5.33;;;23.30;50.60;;;;;;5085399;28;20475;-79
2023/06/15 10:04:04;;;;;;;8.60;5.73;;;23.40;50.50;;;;;;5089186;28;20525;-80
2023/06/15 10:06:34;;;;;;;8.70;6.03;;;23.50;50.50;;;;;;5097985;28;20453;-84
2023/06/15 10:09:06;;;;;;;9.10;5.50;;;23.50;50.70;;;;;;5105387;28;20454;-79
2023/06/15 10:11:38;;;;;;;8.80;5.50;;;23.60;50.60;;;;;;5107030;28;20444;-82
2023/06/15 10:14:10;;;;;;;8.87;5.53;;;23.70;50.70;;;;;;5087796;28;20459;-82
2023/06/15 10:16:41;;;;;;;8.67;5.63;;;23.70;50.50;;;;;;5088604;28;20949;-80
2023/06/15 10:19:11;;;;;;;9.97;5.93;;;23.70;50.40;;;;;;5102125;28;21002;-80
2023/06/15 10:21:43;;;;;;;7.93;5.17;;;23.70;50.40;;;;;;5085888;28;20655;-79
2023/06/15 10:24:15;;;;;;;8.30;5.50;;;23.80;50.60;;;;;;5105758;28;20450;-82
2023/06/15 10:26:46;;;;;;;8.93;6.30;;;23.80;50.60;;;;;;5093496;28;20455;-80
2023/06/15 10:29:21;;;;;;;8.70;5.27;;;23.80;50.70;;;;;;5108036;28;20478;-80
2023/06/15 10:31:59;;;;;;;8.27;5.23;;;23.90;50.70;;;;;;5084623;28;20476;-83
2023/06/15 10:34:34;;;;;;;9.07;5.80;;;24.00;50.80;;;;;;5107402;28;20578;-80
2023/06/15 10:37:08;;;;;;;9.83;5.70;;;24.00;50.70;;;;;;5112033;28;20522;-82
2023/06/15 10:39:43;;;;;;;8.30;4.90;;;24.10;50.80;;;;;;5110396;28;20526;-83
2023/06/15 10:42:13;;;;;;;7.60;5.03;;;24.10;50.70;;;;;;5104416;28;20501;-82
2023/06/15 10:44:42;;;;;;;10.30;5.20;;;24.10;50.80;;;;;;5091474;28;20513;-80
2023/06/15 10:47:12;;;;;;;7.47;4.70;;;24.00;50.70;;;;;;5089759;28;20796;-82
2023/06/15 10:49:48;;;;;;;8.33;4.50;;;24.00;50.60;;;;;;5086318;28;20445;-83
2023/06/15 10:52:16;;;;;;;9.07;5.20;;;24.00;50.50;;;;;;5101347;28;20444;-81
2023/06/15 10:54:46;;;;;;;7.67;4.60;;;24.00;50.60;;;;;;5087798;28;20476;-80
2023/06/15 10:57:17;;;;;;;7.40;4.63;;;24.10;50.50;;;;;;5107766;28;20443;-83
2023/06/15 10:59:49;;;;;;;8.20;4.65;;;24.10;50.50;;;;;;5111202;28;20502;-81
2023/06/15 11:02:49;;;;;;;10.30;5.17;;;24.10;50.60;;;;;;5098394;28;21009;-82
2023/06/15 11:05:22;;;;;;;6.80;4.50;;;24.20;50.50;;;;;;5103031;28;20539;-83
2023/06/15 11:07:51;;;;;;;8.37;4.40;;;24.20;50.70;;;;;;5086827;28;20532;-82
2023/06/15 11:10:27;;;;;;;8.47;4.40;;;24.20;50.60;;;;;;5105016;28;20455;-83
2023/06/15 11:13:01;;;;;;;6.70;3.93;;;24.30;50.40;;;;;;5109122;28;20444;-82
2023/06/15 11:15:34;;;;;;;6.67;4.13;;;24.40;50.40;;;;;;5083708;28;20466;-81
2023/06/15 11:18:04;;;;;;;8.20;4.53;;;24.50;50.40;;;;;;5107441;28;20460;-81
2023/06/15 11:20:59;;;;;;;10.53;4.50;;;24.60;50.10;;;;;;5107312;28;20914;-83
2023/06/15 11:23:32;;;;;;;7.07;4.57;;;24.60;50.10;;;;;;5093560;28;20452;-80
2023/06/15 11:26:02;;;;;;;7.87;4.60;;;24.60;50.10;;;;;;5104024;28;20522;-80
2023/06/15 11:28:34;;;;;;;7.73;3.83;;;24.60;50.10;;;;;;5109484;28;21261;-82
2023/06/15 11:31:07;;;;;;;7.50;3.67;;;24.70;50.10;;;;;;5086782;28;20466;-82
2023/06/15 11:33:37;;;;;;;11.80;4.40;;;24.70;49.80;;;;;;5109985;28;20837;-80
2023/06/15 11:36:07;;;;;;;6.33;3.73;;;24.70;49.60;;;;;;5103846;28;20480;-79
2023/06/15 11:38:36;;;;;;;6.70;3.70;;;24.70;49.60;;;;;;5084333;28;20548;-83
2023/06/15 11:41:07;;;;;;;7.07;3.50;;;24.70;50.00;;;;;;5091515;28;21010;-83
2023/06/15 11:43:40;;;;;;;9.50;3.70;;;24.80;50.00;;;;;;5086204;28;20549;-81
2023/06/15 11:46:12;;;;;;;7.47;4.10;;;24.80;50.10;;;;;;5107396;28;20455;-80
2023/06/15 11:48:40;;;;;;;6.37;3.60;;;24.70;49.60;;;;;;5085254;28;20461;-81
2023/06/15 11:51:11;;;;;;;10.17;4.50;;;24.70;49.60;;;;;;5102754;28;20943;-84
2023/06/15 11:53:40;;;;;;;6.90;3.90;;;24.70;49.50;;;;;;5094588;28;20453;-82
2023/06/15 11:56:12;;;;;;;6.80;4.13;;;24.80;49.50;;;;;;5106271;28;20531;-81
2023/06/15 11:58:41;;;;;;;7.10;4.30;;;24.80;49.40;;;;;;5106311;28;20443;-80
2023/06/15 12:01:12;;;;;;;8.17;4.40;;;24.80;49.30;;;;;;5107545;28;20484;-78
2023/06/15 12:03:44;;;;;;;7.63;4.03;;;24.90;49.30;;;;;;5086606;28;20449;-79
2023/06/15 12:06:30;;;;;;;7.70;4.53;;;25.00;50.00;;;;;;5103971;28;20449;-80
2023/06/15 12:08:58;;;;;;;7.27;3.97;;;25.00;49.80;;;;;;5092102;28;20440;-81
2023/06/15 12:11:27;;;;;;;6.83;4.07;;;25.10;49.60;;;;;;5082846;28;20444;-81
2023/06/15 12:14:01;;;;;;;6.20;3.70;;;25.10;49.40;;;;;;5089858;28;20455;-83
2023/06/15 12:16:30;;;;;;;9.30;4.27;;;25.20;49.30;;;;;;5094619;28;20856;-83
2023/06/15 12:18:59;;;;;;;7.40;3.73;;;25.20;49.60;;;;;;5103712;28;20446;-83
2023/06/15 12:21:30;;;;;;;10.50;4.17;;;25.30;49.40;;;;;;5107102;28;20548;-81
2023/06/15 12:23:58;;;;;;;8.30;4.20;;;25.30;49.00;;;;;;5111660;27;20462;-80
2023/06/15 12:26:32;;;;;;;7.70;3.90;;;25.30;49.00;;;;;;5107250;28;20456;-80
2023/06/15 12:29:01;;;;;;;6.67;4.23;;;25.40;48.90;;;;;;5104703;28;20435;-80
2023/06/15 12:31:33;;;;;;;7.70;3.90;;;25.40;48.80;;;;;;5104704;28;20897;-80
2023/06/15 12:34:07;;;;;;;10.70;4.33;;;25.40;48.80;;;;;;5105212;28;20486;-83
2023/06/15 12:36:37;;;;;;;6.10;3.67;;;25.40;48.80;;;;;;5104618;28;20449;-81
2023/06/15 12:39:07;;;;;;;7.60;3.70;;;25.20;48.80;;;;;;5106207;28;20448;-80
2023/06/15 12:41:40;;;;;;;7.30;3.67;;;25.10;48.90;;;;;;5086756;28;20491;-80
2023/06/15 12:44:08;;;;;;;9.10;3.33;;;25.10;48.90;;;;;;5106707;28;20448;-79
2023/06/15 12:46:38;;;;;;;8.17;4.13;;;25.00;49.10;;;;;;5110890;28;20468;-81
2023/06/15 12:49:07;;;;;;;7.93;3.47;;;25.00;49.20;;;;;;5106100;28;20459;-80
2023/06/15 12:51:36;;;;;;;9.40;4.47;;;25.00;49.10;;;;;;5089620;28;20432;-81
2023/06/15 12:54:04;;;;;;;6.47;3.80;;;25.10;49.10;;;;;;5105774;28;20536;-83
2023/06/15 12:56:34;;;;;;;8.43;3.70;;;25.10;49.10;;;;;;5106758;28;20843;-81
2023/06/15 12:59:04;;;;;;;7.90;4.00;;;25.20;49.00;;;;;;5109396;28;20458;-81
2023/06/15 13:01:33;;;;;;;6.90;3.53;;;25.30;49.00;;;;;;5085741;28;20472;-80